createdAt,value
2018-11-02T00:01:41.581Z,11.20
2018-11-02T00:04:09.952Z,10.87
2018-11-02T00:06:38.283Z,11.03
2018-11-02T00:09:07.236Z,10.70
2018-11-02T00:11:35.544Z,10.07
2018-11-02T00:14:03.882Z,8.90
2018-11-02T00:16:33.263Z,8.97
2018-11-02T00:19:01.623Z,8.97
2018-11-02T00:21:29.990Z,10.10
2018-11-02T00:23:58.343Z,9.23
2018-11-02T00:26:26.699Z,9.00
2018-11-02T00:28:55.092Z,8.97
2018-11-02T00:31:23.418Z,8.80
2018-11-02T00:33:51.743Z,9.00
2018-11-02T00:36:20.051Z,9.70
2018-11-02T00:38:48.368Z,9.23
2018-11-02T00:41:16.721Z,7.40
2018-11-02T00:43:45.034Z,6.70
2018-11-02T00:46:13.366Z,6.23
2018-11-02T00:48:41.675Z,5.40
2018-11-02T00:51:09.999Z,5.37
2018-11-02T00:53:38.283Z,6.10
2018-11-02T00:56:06.653Z,4.50
2018-11-02T00:58:34.982Z,5.07
2018-11-02T01:01:03.319Z,4.70
2018-11-02T01:03:31.669Z,4.03
2018-11-02T01:05:59.973Z,4.47
2018-11-02T01:08:28.507Z,3.93
2018-11-02T01:10:56.883Z,4.00
2018-11-02T01:13:25.186Z,3.67
2018-11-02T01:15:53.523Z,4.10
2018-11-02T01:18:21.830Z,3.20
2018-11-02T01:20:50.158Z,3.40
2018-11-02T01:23:18.463Z,3.13
2018-11-02T01:25:46.769Z,3.03
2018-11-02T01:28:15.108Z,3.57
2018-11-02T01:30:43.443Z,3.87
2018-11-02T01:33:11.810Z,3.53
2018-11-02T01:35:40.112Z,3.17
2018-11-02T01:38:08.463Z,3.70
2018-11-02T01:40:36.877Z,4.10
2018-11-02T01:43:06.099Z,4.03
2018-11-02T01:45:34.413Z,3.80
2018-11-02T01:48:02.711Z,4.80
2018-11-02T01:50:31.007Z,4.57
2018-11-02T01:52:59.330Z,4.60
2018-11-02T01:55:27.658Z,5.20
2018-11-02T01:57:55.993Z,4.00
2018-11-02T02:00:24.365Z,5.00
2018-11-02T02:02:52.695Z,4.90
2018-11-02T02:05:21.010Z,5.43
2018-11-02T02:07:49.336Z,5.00
2018-11-02T02:10:17.683Z,5.73
2018-11-02T02:12:46.028Z,4.93
2018-11-02T02:15:14.358Z,5.20
2018-11-02T02:17:42.676Z,4.80
2018-11-02T02:20:10.983Z,4.83
2018-11-02T02:22:39.271Z,4.50
2018-11-02T02:25:08.016Z,4.00
2018-11-02T02:27:37.212Z,4.10
2018-11-02T02:30:07.889Z,3.57
2018-11-02T02:32:36.467Z,3.90
2018-11-02T02:35:05.224Z,3.63
2018-11-02T02:37:33.592Z,3.70
2018-11-02T02:40:02.017Z,2.70
2018-11-02T02:42:30.486Z,2.53
2018-11-02T02:44:58.962Z,2.97
2018-11-02T02:47:27.373Z,2.47
2018-11-02T02:49:55.794Z,2.60
2018-11-02T02:52:24.154Z,2.37
2018-11-02T02:54:52.523Z,2.30
2018-11-02T02:57:20.915Z,2.00
2018-11-02T02:59:49.322Z,2.30
2018-11-02T03:02:17.696Z,1.77
2018-11-02T03:04:46.131Z,2.50
2018-11-02T03:07:14.504Z,1.93
2018-11-02T03:09:43.022Z,2.00
2018-11-02T03:12:11.462Z,1.97
2018-11-02T03:14:39.901Z,1.60
2018-11-02T03:17:08.486Z,2.03
2018-11-02T03:19:36.922Z,2.00
2018-11-02T03:22:05.344Z,1.73
2018-11-02T03:24:33.719Z,1.63
2018-11-02T03:27:02.339Z,1.47
2018-11-02T03:29:30.942Z,1.20
2018-11-02T03:31:59.347Z,1.93
2018-11-02T03:34:27.863Z,1.90
2018-11-02T03:36:56.258Z,2.07
2018-11-02T03:39:24.630Z,1.50
2018-11-02T03:41:53.010Z,1.73
2018-11-02T03:44:21.379Z,1.80
2018-11-02T03:46:49.751Z,1.60
2018-11-02T03:49:18.163Z,1.60
2018-11-02T03:51:46.525Z,1.63
2018-11-02T03:54:14.977Z,1.60
2018-11-02T03:56:43.448Z,1.50
2018-11-02T03:59:12.259Z,1.60
2018-11-02T04:01:40.625Z,1.53
2018-11-02T04:04:09.255Z,1.50
2018-11-02T04:06:37.607Z,1.90
2018-11-02T04:09:07.062Z,1.80
2018-11-02T04:11:35.519Z,1.83
2018-11-02T04:14:03.903Z,1.63
2018-11-02T04:16:32.298Z,1.57
2018-11-02T04:19:00.695Z,1.83
2018-11-02T04:21:29.079Z,1.73
2018-11-02T04:23:57.440Z,1.60
2018-11-02T04:26:25.851Z,1.70
2018-11-02T04:28:54.274Z,1.37
2018-11-02T04:31:22.644Z,1.40
2018-11-02T04:33:51.099Z,1.63
2018-11-02T04:36:19.467Z,1.90
2018-11-02T04:38:47.843Z,2.00
2018-11-02T04:41:16.282Z,1.30
2018-11-02T04:43:44.723Z,1.40
2018-11-02T04:46:13.100Z,1.60
2018-11-02T04:48:41.528Z,1.33
2018-11-02T04:51:09.982Z,1.53
2018-11-02T04:53:38.328Z,1.73
2018-11-02T04:56:06.731Z,1.80
2018-11-02T04:58:35.194Z,1.93
2018-11-02T05:01:03.626Z,1.87
2018-11-02T05:03:32.127Z,1.90
2018-11-02T05:06:00.531Z,1.57
2018-11-02T05:08:28.941Z,2.10
2018-11-02T05:10:57.360Z,1.90
2018-11-02T05:13:25.759Z,2.20
2018-11-02T05:15:54.246Z,2.03
2018-11-02T05:18:22.675Z,2.00
2018-11-02T05:20:51.073Z,2.13
2018-11-02T05:23:19.515Z,2.10
2018-11-02T05:25:47.939Z,2.10
2018-11-02T05:28:16.411Z,2.00
2018-11-02T05:30:44.818Z,2.30
2018-11-02T05:33:13.215Z,2.13
2018-11-02T05:35:41.625Z,2.13
2018-11-02T05:38:10.143Z,1.80
2018-11-02T05:40:38.526Z,1.97
2018-11-02T05:43:06.910Z,2.30
2018-11-02T05:45:35.387Z,2.70
2018-11-02T05:48:03.764Z,2.30
2018-11-02T05:50:32.361Z,3.10
2018-11-02T05:53:00.707Z,2.40
2018-11-02T05:55:29.196Z,2.70
2018-11-02T05:57:57.783Z,2.20
2018-11-02T06:00:26.188Z,2.67
2018-11-02T06:02:54.589Z,3.03
2018-11-02T06:05:23.823Z,3.20
2018-11-02T06:07:52.338Z,4.00
2018-11-02T06:10:20.583Z,3.27
2018-11-02T06:12:48.888Z,3.13
2018-11-02T06:15:17.298Z,3.20
2018-11-02T06:17:45.709Z,3.80
2018-11-02T06:20:14.183Z,3.47
2018-11-02T06:22:42.595Z,3.10
2018-11-02T06:25:11.227Z,3.57
2018-11-02T06:27:39.611Z,3.47
2018-11-02T06:30:08.572Z,3.67
2018-11-02T06:32:36.999Z,4.30
2018-11-02T06:35:06.150Z,4.43
2018-11-02T06:37:34.510Z,4.60
2018-11-02T06:40:02.903Z,4.87
2018-11-02T06:42:31.363Z,4.50
2018-11-02T06:44:59.985Z,4.63
2018-11-02T06:47:28.264Z,4.80
2018-11-02T06:49:56.909Z,4.80
2018-11-02T06:52:25.434Z,5.10
2018-11-02T06:54:53.865Z,4.90
2018-11-02T06:57:22.246Z,4.60
2018-11-02T06:59:50.840Z,5.00
2018-11-02T07:02:19.110Z,4.80
2018-11-02T07:04:47.575Z,5.70
2018-11-02T07:07:16.080Z,5.30
2018-11-02T07:09:44.453Z,5.50
2018-11-02T07:12:12.811Z,5.30
2018-11-02T07:14:41.203Z,5.60
2018-11-02T07:17:09.608Z,5.60
2018-11-02T07:19:38.114Z,5.70
2018-11-02T07:22:06.563Z,6.40
2018-11-02T07:24:35.126Z,5.90
2018-11-02T07:27:03.963Z,6.00
2018-11-02T07:29:32.287Z,5.67
2018-11-02T07:32:00.723Z,6.47
2018-11-02T07:34:29.260Z,6.43
2018-11-02T07:36:57.532Z,6.27
2018-11-02T07:39:25.980Z,5.93
2018-11-02T07:41:54.352Z,6.20
2018-11-02T07:44:22.748Z,6.37
2018-11-02T07:46:51.229Z,6.57
2018-11-02T07:49:19.694Z,5.97
2018-11-02T07:51:48.047Z,5.83
2018-11-02T07:54:16.490Z,5.80
2018-11-02T07:56:44.908Z,5.40
2018-11-02T07:59:13.354Z,5.37
2018-11-02T08:01:41.945Z,5.70
2018-11-02T08:04:10.295Z,6.13
2018-11-02T08:06:38.747Z,5.53
2018-11-02T08:09:09.074Z,7.40
2018-11-02T08:11:37.553Z,6.50
2018-11-02T08:14:06.274Z,6.43
2018-11-02T08:16:34.708Z,6.50
2018-11-02T08:19:03.208Z,6.17
2018-11-02T08:21:31.557Z,5.67
2018-11-02T08:23:59.962Z,6.37
2018-11-02T08:26:28.359Z,5.43
2018-11-02T08:28:56.767Z,5.60
2018-11-02T08:31:25.287Z,5.20
2018-11-02T08:33:53.723Z,6.30
2018-11-02T08:36:22.139Z,5.13
2018-11-02T08:38:50.583Z,6.03
2018-11-02T08:41:19.003Z,5.80
2018-11-02T08:43:47.527Z,5.73
2018-11-02T08:46:16.045Z,6.60
2018-11-02T08:48:44.600Z,6.00
2018-11-02T08:51:13.015Z,5.80
2018-11-02T08:53:41.481Z,5.77
2018-11-02T08:56:09.949Z,5.10
2018-11-02T08:58:38.529Z,5.67
2018-11-02T09:01:06.832Z,4.90
2018-11-02T09:03:36.091Z,4.60
2018-11-02T09:06:04.583Z,4.40
2018-11-02T09:08:32.999Z,4.70
2018-11-02T09:11:01.522Z,4.07
2018-11-02T09:13:29.944Z,4.30
2018-11-02T09:15:58.351Z,4.50
2018-11-02T09:18:26.855Z,4.43
2018-11-02T09:20:55.259Z,3.93
2018-11-02T09:23:23.663Z,4.73
2018-11-02T09:25:52.191Z,4.37
2018-11-02T09:28:20.725Z,4.43
2018-11-02T09:30:49.148Z,4.80
2018-11-02T09:33:17.595Z,4.10
2018-11-02T09:35:46.011Z,5.00
2018-11-02T09:38:14.390Z,4.40
2018-11-02T09:40:42.866Z,4.40
2018-11-02T09:43:11.303Z,4.30
2018-11-02T09:45:39.759Z,4.23
2018-11-02T09:48:08.183Z,4.50
2018-11-02T09:50:36.890Z,4.10
2018-11-02T09:53:05.274Z,4.50
2018-11-02T09:55:33.687Z,4.57
2018-11-02T09:58:02.167Z,4.80
2018-11-02T10:00:30.570Z,4.70
2018-11-02T10:02:58.998Z,5.20
2018-11-02T10:05:27.412Z,4.57
2018-11-02T10:07:55.926Z,4.73
2018-11-02T10:10:24.412Z,4.73
2018-11-02T10:12:52.945Z,4.90
2018-11-02T10:15:21.406Z,5.13
2018-11-02T10:17:49.775Z,4.60
2018-11-02T10:20:18.198Z,4.33
2018-11-02T10:22:46.614Z,4.60
2018-11-02T10:25:15.003Z,4.80
2018-11-02T10:27:43.846Z,4.77
2018-11-02T10:30:13.509Z,4.50
2018-11-02T10:32:43.190Z,4.40
2018-11-02T10:35:11.612Z,4.80
2018-11-02T10:37:40.104Z,5.63
2018-11-02T10:40:13.067Z,5.67
2018-11-02T10:42:42.264Z,5.67
2018-11-02T10:45:10.675Z,5.20
2018-11-02T10:47:39.310Z,6.00
2018-11-02T10:50:08.310Z,5.73
2018-11-02T10:52:36.727Z,5.83
2018-11-02T10:55:05.415Z,6.80
2018-11-02T10:57:33.930Z,6.70
2018-11-02T11:00:02.389Z,5.87
2018-11-02T11:02:35.995Z,6.40
2018-11-02T11:05:05.037Z,7.33
2018-11-02T11:07:33.440Z,6.00
2018-11-02T11:10:01.840Z,5.23
2018-11-02T11:12:30.524Z,6.33
2018-11-02T11:14:58.776Z,6.10
2018-11-02T11:17:27.262Z,6.70
2018-11-02T11:19:55.718Z,5.80
2018-11-02T11:22:24.095Z,6.23
2018-11-02T11:24:52.808Z,6.77
2018-11-02T11:27:21.289Z,5.90
2018-11-02T11:29:49.747Z,5.93
2018-11-02T11:32:18.181Z,5.50
2018-11-02T11:34:46.546Z,6.50
2018-11-02T11:37:14.963Z,5.80
2018-11-02T11:39:43.448Z,5.80
2018-11-02T11:44:52.216Z,5.73
2018-11-02T11:47:20.588Z,6.20
2018-11-02T11:49:49.136Z,5.47
2018-11-02T11:52:17.485Z,5.00
2018-11-02T11:54:45.843Z,5.63
2018-11-02T11:57:14.195Z,5.67
2018-11-02T11:59:42.548Z,5.53
2018-11-02T12:02:10.947Z,5.27
2018-11-02T12:04:39.248Z,5.97
2018-11-02T12:07:07.543Z,5.63
2018-11-02T12:09:35.914Z,4.90
2018-11-02T12:12:04.278Z,4.20
2018-11-02T12:14:32.644Z,4.30
2018-11-02T12:17:01.029Z,4.27
2018-11-02T12:19:29.407Z,4.50
2018-11-02T12:21:57.872Z,4.57
2018-11-02T12:24:26.113Z,4.90
2018-11-02T12:26:54.434Z,5.20
2018-11-02T12:29:22.752Z,5.57
2018-11-02T12:31:51.079Z,5.67
2018-11-02T12:34:19.492Z,6.23
2018-11-02T12:36:47.893Z,5.77
2018-11-02T12:39:16.238Z,5.63
2018-11-02T12:41:44.588Z,5.57
2018-11-02T12:44:13.025Z,6.10
2018-11-02T12:46:41.347Z,5.83
2018-11-02T12:49:10.062Z,6.43
2018-11-02T12:51:38.239Z,6.17
2018-11-02T12:54:06.652Z,5.43
2018-11-02T12:56:35.203Z,5.33
2018-11-02T12:59:03.945Z,4.80
2018-11-02T13:01:32.395Z,5.30
2018-11-02T13:04:00.971Z,5.43
2018-11-02T13:06:29.591Z,5.37
2018-11-02T13:08:58.140Z,5.67
2018-11-02T13:11:26.652Z,6.63
2018-11-02T13:13:55.117Z,5.90
2018-11-02T13:16:23.605Z,5.97
2018-11-02T13:18:52.374Z,6.57
2018-11-02T13:21:20.979Z,7.33
2018-11-02T13:23:49.423Z,6.20
2018-11-02T13:26:17.961Z,7.37
2018-11-02T13:28:46.306Z,6.13
2018-11-02T13:31:14.805Z,6.57
2018-11-02T13:33:43.239Z,7.83
2018-11-02T13:36:11.755Z,6.83
2018-11-02T13:38:40.183Z,6.70
2018-11-02T13:41:08.671Z,7.20
2018-11-02T13:43:37.208Z,6.53
2018-11-02T13:46:05.755Z,6.47
2018-11-02T13:48:34.157Z,6.73
2018-11-02T13:51:02.627Z,7.17
2018-11-02T13:53:31.255Z,6.57
2018-11-02T13:55:59.588Z,7.27
2018-11-02T13:58:28.042Z,8.07
2018-11-02T14:00:56.367Z,7.60
2018-11-02T14:03:24.791Z,7.27
2018-11-02T14:05:53.300Z,7.63
2018-11-02T14:08:21.859Z,8.00
2018-11-02T14:10:50.324Z,8.73
2018-11-02T14:13:18.730Z,8.83
2018-11-02T14:15:47.166Z,9.00
2018-11-02T14:18:15.644Z,8.50
2018-11-02T14:20:44.080Z,9.77
2018-11-02T14:23:12.647Z,8.33
2018-11-02T14:25:41.228Z,8.63
2018-11-02T14:28:09.847Z,9.70
2018-11-02T14:30:38.359Z,9.17
2018-11-02T14:33:06.850Z,8.37
2018-11-02T14:35:35.318Z,8.40
2018-11-02T14:38:03.751Z,9.87
2018-11-02T14:40:32.252Z,9.43
2018-11-02T14:43:00.682Z,9.40
2018-11-02T14:45:29.243Z,9.57
2018-11-02T14:47:57.810Z,9.23
2018-11-02T14:50:27.291Z,9.80
2018-11-02T14:52:56.918Z,23.47
2018-11-02T14:55:26.684Z,10.17
2018-11-02T14:57:55.518Z,10.63
2018-11-02T15:00:25.080Z,9.50
2018-11-02T15:02:54.392Z,9.67
2018-11-02T15:05:29.769Z,10.70
2018-11-02T15:07:58.859Z,10.80
2018-11-02T15:10:28.308Z,10.90
2018-11-02T15:12:56.663Z,11.30
2018-11-02T15:15:24.995Z,11.00
2018-11-02T15:17:53.327Z,11.67
2018-11-02T15:20:21.643Z,9.77
2018-11-02T15:22:49.975Z,11.57
2018-11-02T15:25:18.340Z,10.70
2018-11-02T15:27:46.662Z,11.90
2018-11-02T15:30:15.238Z,10.30
2018-11-02T15:32:44.615Z,9.83
2018-11-02T15:35:13.203Z,11.20
2018-11-02T15:37:41.953Z,9.93
2018-11-02T15:40:11.280Z,10.63
2018-11-02T15:42:39.619Z,9.97
2018-11-02T15:45:09.522Z,11.97
2018-11-02T15:47:37.831Z,9.97
2018-11-02T15:50:06.433Z,10.70
2018-11-02T15:52:34.999Z,10.77
2018-11-02T15:55:03.443Z,9.87
2018-11-02T15:57:31.905Z,10.97
2018-11-02T16:00:00.387Z,10.27
2018-11-02T16:02:28.820Z,10.90
2018-11-02T16:04:57.386Z,10.20
2018-11-02T16:07:25.778Z,10.70
2018-11-02T16:09:54.272Z,11.57
2018-11-02T16:12:22.682Z,10.33
2018-11-02T16:14:51.183Z,10.37
2018-11-02T16:17:19.672Z,8.67
2018-11-02T16:19:48.089Z,9.67
2018-11-02T16:22:16.575Z,9.10
2018-11-02T16:24:44.996Z,9.13
2018-11-02T16:27:13.482Z,9.43
2018-11-02T16:29:41.927Z,9.80
2018-11-02T16:32:10.519Z,10.87
2018-11-02T16:34:38.975Z,11.00
2018-11-02T16:37:07.371Z,9.93
2018-11-02T16:39:35.816Z,9.00
2018-11-02T16:42:04.263Z,9.50
2018-11-02T16:44:32.715Z,8.43
2018-11-02T16:47:07.623Z,9.10
2018-11-02T16:49:36.010Z,8.87
2018-11-02T16:52:04.369Z,8.40
2018-11-02T16:54:39.049Z,8.73
2018-11-02T16:57:07.382Z,8.70
2018-11-02T16:59:35.819Z,8.30
2018-11-02T17:02:04.234Z,9.13
2018-11-02T17:04:32.654Z,8.83
2018-11-02T17:07:07.512Z,8.60
2018-11-02T17:09:35.831Z,7.90
2018-11-02T17:12:04.211Z,8.33
2018-11-02T17:14:32.575Z,8.00
2018-11-02T17:17:01.017Z,8.90
2018-11-02T17:19:29.339Z,9.20
2018-11-02T17:21:57.787Z,9.33
2018-11-02T17:24:26.100Z,8.83
2018-11-02T17:26:54.428Z,8.90
2018-11-02T17:29:22.811Z,7.83
2018-11-02T17:31:51.159Z,9.37
2018-11-02T17:34:19.489Z,9.33
2018-11-02T17:36:47.831Z,9.13
2018-11-02T17:39:16.163Z,9.00
2018-11-02T17:41:44.511Z,8.40
2018-11-02T17:44:12.824Z,8.83
2018-11-02T17:46:41.170Z,8.93
2018-11-02T17:49:09.494Z,8.70
2018-11-02T17:51:37.843Z,9.97
2018-11-02T17:54:06.207Z,9.37
2018-11-02T17:56:34.526Z,9.53
2018-11-02T17:59:02.887Z,9.07
2018-11-02T18:01:31.240Z,8.70
2018-11-02T18:03:59.613Z,9.50
2018-11-02T18:06:28.639Z,8.00
2018-11-02T18:08:57.003Z,7.50
2018-11-02T18:11:25.359Z,8.13
2018-11-02T18:13:53.674Z,8.80
2018-11-02T18:16:22.019Z,7.90
2018-11-02T18:18:50.361Z,8.70
2018-11-02T18:21:18.675Z,7.87
2018-11-02T18:23:47.024Z,7.33
2018-11-02T18:26:15.338Z,7.20
2018-11-02T18:28:43.663Z,8.00
2018-11-02T18:31:11.980Z,7.47
2018-11-02T18:33:40.315Z,6.70
2018-11-02T18:36:08.670Z,7.40
2018-11-02T18:38:37.022Z,7.60
2018-11-02T18:41:05.387Z,7.00
2018-11-02T18:43:33.770Z,7.20
2018-11-02T18:46:02.144Z,7.03
2018-11-02T18:48:30.503Z,7.10
2018-11-02T18:50:58.867Z,6.23
2018-11-02T18:53:27.174Z,6.80
2018-11-02T18:55:55.523Z,8.00
2018-11-02T18:58:23.847Z,7.60
2018-11-02T19:00:52.190Z,6.77
2018-11-02T19:03:20.526Z,7.50
2018-11-02T19:05:49.916Z,6.70
2018-11-02T19:08:18.182Z,6.80
2018-11-02T19:10:46.562Z,5.93
2018-11-02T19:13:14.896Z,7.00
2018-11-02T19:15:43.295Z,6.57
2018-11-02T19:18:11.610Z,6.53
2018-11-02T19:20:39.951Z,6.80
2018-11-02T19:23:08.259Z,6.63
2018-11-02T19:25:36.596Z,7.50
2018-11-02T19:28:04.911Z,6.17
2018-11-02T19:30:33.253Z,6.10
2018-11-02T19:33:01.669Z,5.87
2018-11-02T19:35:30.040Z,5.87
2018-11-02T19:37:58.373Z,6.60
2018-11-02T19:40:26.666Z,5.37
2018-11-02T19:42:55.048Z,6.03
2018-11-02T19:45:23.359Z,6.33
2018-11-02T19:47:59.736Z,6.43
2018-11-02T19:50:28.149Z,6.40
2018-11-02T19:52:56.391Z,5.90
2018-11-02T19:55:24.752Z,6.77
2018-11-02T19:57:53.022Z,5.93
2018-11-02T20:00:21.359Z,4.77
2018-11-02T20:02:49.675Z,6.63
2018-11-02T20:05:19.187Z,6.20
2018-11-02T20:07:47.538Z,6.90
2018-11-02T20:10:16.651Z,6.10
2018-11-02T20:12:45.614Z,6.20
2018-11-02T20:15:14.686Z,6.17
2018-11-02T20:17:43.137Z,7.30
2018-11-02T20:20:12.895Z,6.20
2018-11-02T20:22:41.415Z,6.33
2018-11-02T20:25:11.862Z,6.77
2018-11-02T20:27:40.297Z,7.07
2018-11-02T20:30:10.603Z,6.07
2018-11-02T20:32:39.155Z,6.73
2018-11-02T20:35:07.881Z,6.87
2018-11-02T20:37:36.690Z,7.17
2018-11-02T20:40:06.702Z,6.47
2018-11-02T20:42:35.123Z,8.43
2018-11-02T20:45:03.684Z,8.00
2018-11-02T20:47:38.251Z,8.80
2018-11-02T20:50:07.935Z,7.90
2018-11-02T20:52:36.332Z,9.10
2018-11-02T20:55:04.938Z,8.50
2018-11-02T20:57:33.329Z,8.37
2018-11-02T21:00:01.692Z,8.13
2018-11-02T21:02:30.122Z,10.50
2018-11-02T21:04:58.528Z,10.10
2018-11-02T21:07:27.148Z,9.97
2018-11-02T21:09:55.524Z,10.20
2018-11-02T21:12:23.965Z,11.27
2018-11-02T21:14:52.486Z,9.90
2018-11-02T21:17:21.256Z,11.30
2018-11-02T21:19:49.739Z,11.97
2018-11-02T21:22:18.167Z,11.53
2018-11-02T21:24:46.583Z,11.43
2018-11-02T21:27:14.990Z,11.47
2018-11-02T21:29:43.543Z,11.30
2018-11-02T21:32:12.047Z,14.20
2018-11-02T21:34:40.461Z,12.27
2018-11-02T21:37:08.867Z,12.23
2018-11-02T21:39:37.227Z,12.53
2018-11-02T21:42:05.857Z,13.90
2018-11-02T21:44:34.290Z,12.60
2018-11-02T21:47:02.854Z,13.50
2018-11-02T21:49:31.294Z,13.80
2018-11-02T21:51:59.771Z,13.40
2018-11-02T21:54:28.246Z,13.10
2018-11-02T21:56:56.626Z,13.40
2018-11-02T21:59:25.035Z,12.40
2018-11-02T22:01:53.535Z,13.90
2018-11-02T22:04:21.970Z,13.60
2018-11-02T22:06:50.434Z,12.70
2018-11-02T22:09:18.830Z,13.30
2018-11-02T22:11:47.358Z,12.70
2018-11-02T22:14:15.783Z,11.93
2018-11-02T22:16:44.220Z,13.90
2018-11-02T22:19:12.772Z,14.50
2018-11-02T22:21:41.091Z,14.40
2018-11-02T22:24:09.626Z,16.20
2018-11-02T22:26:37.987Z,12.67
2018-11-02T22:29:06.600Z,13.23
2018-11-02T22:31:34.956Z,13.83
2018-11-02T22:34:03.418Z,12.93
2018-11-02T22:36:31.923Z,13.00
2018-11-02T22:39:00.474Z,13.10
2018-11-02T22:41:28.950Z,13.80
2018-11-02T22:43:57.407Z,13.17
2018-11-02T22:46:25.919Z,13.30
2018-11-02T22:48:54.344Z,13.50
2018-11-02T22:51:22.768Z,13.30
2018-11-02T22:53:51.247Z,13.40
2018-11-02T22:56:19.726Z,13.50
2018-11-02T22:58:48.086Z,13.70
2018-11-02T23:01:21.847Z,13.87
2018-11-02T23:03:50.451Z,13.10
2018-11-02T23:06:18.887Z,13.40
2018-11-02T23:08:47.397Z,14.87
2018-11-02T23:11:15.737Z,13.50
2018-11-02T23:13:44.223Z,13.67
2018-11-02T23:16:12.763Z,14.67
2018-11-02T23:18:41.079Z,15.47
2018-11-02T23:21:09.474Z,14.83
2018-11-02T23:23:37.928Z,15.70
2018-11-02T23:26:06.316Z,15.70
2018-11-02T23:28:34.631Z,15.20
2018-11-02T23:31:03.239Z,14.63
2018-11-02T23:33:31.684Z,14.03
2018-11-02T23:36:00.166Z,14.93
2018-11-02T23:38:28.567Z,15.80
2018-11-02T23:40:56.968Z,14.60
2018-11-02T23:43:25.439Z,14.20
2018-11-02T23:45:53.933Z,14.00
2018-11-02T23:48:22.338Z,14.60
2018-11-02T23:53:46.605Z,13.20
2018-11-02T23:56:15.010Z,13.27
2018-11-02T23:58:43.369Z,13.60
